sensor_id;sensor_type;location;lat;lon;timestamp;temperature;humidity
5130;DHT22;2583;50.946;6.954;2022-12-05T00:03:55;4.40;99.90
5130;DHT22;2583;50.946;6.954;2022-12-05T00:06:23;4.30;99.90
5130;DHT22;2583;50.946;6.954;2022-12-05T00:08:50;4.30;99.90
5130;DHT22;2583;50.946;6.954;2022-12-05T00:11:20;4.30;99.90
5130;DHT22;2583;50.946;6.954;2022-12-05T00:13:48;4.30;99.90
5130;DHT22;2583;50.946;6.954;2022-12-05T00:16:18;4.30;99.90
5130;DHT22;2583;50.946;6.954;2022-12-05T00:18:45;4.30;99.90
5130;DHT22;2583;50.946;6.954;2022-12-05T00:21:24;4.30;99.90
5130;DHT22;2583;50.946;6.954;2022-12-05T00:23:52;4.20;99.90
5130;DHT22;2583;50.946;6.954;2022-12-05T00:26:20;4.20;99.90
5130;DHT22;2583;50.946;6.954;2022-12-05T00:28:47;4.30;99.90
5130;DHT22;2583;50.946;6.954;2022-12-05T00:31:20;4.20;99.90
5130;DHT22;2583;50.946;6.954;2022-12-05T00:33:48;4.30;99.90
5130;DHT22;2583;50.946;6.954;2022-12-05T00:36:18;4.30;99.90
5130;DHT22;2583;50.946;6.954;2022-12-05T00:38:45;4.20;99.90
5130;DHT22;2583;50.946;6.954;2022-12-05T00:41:18;4.20;99.90
5130;DHT22;2583;50.946;6.954;2022-12-05T00:43:46;4.30;99.90
5130;DHT22;2583;50.946;6.954;2022-12-05T00:46:15;4.40;99.90
5130;DHT22;2583;50.946;6.954;2022-12-05T00:48:43;4.40;99.90
5130;DHT22;2583;50.946;6.954;2022-12-05T00:51:31;4.40;99.90
5130;DHT22;2583;50.946;6.954;2022-12-05T00:54:04;4.40;99.90
5130;DHT22;2583;50.946;6.954;2022-12-05T00:56:32;4.30;99.90
5130;DHT22;2583;50.946;6.954;2022-12-05T00:59:00;4.30;99.90
5130;DHT22;2583;50.946;6.954;2022-12-05T01:01:37;4.40;99.90
5130;DHT22;2583;50.946;6.954;2022-12-05T01:04:11;4.40;99.90
5130;DHT22;2583;50.946;6.954;2022-12-05T01:06:38;4.40;99.90
5130;DHT22;2583;50.946;6.954;2022-12-05T01:09:07;4.50;99.90
5130;DHT22;2583;50.946;6.954;2022-12-05T01:11:34;4.50;99.90
5130;DHT22;2583;50.946;6.954;2022-12-05T01:14:08;4.50;99.90
5130;DHT22;2583;50.946;6.954;2022-12-05T01:16:36;4.50;99.90
5130;DHT22;2583;50.946;6.954;2022-12-05T01:19:08;4.50;99.90
5130;DHT22;2583;50.946;6.954;2022-12-05T01:21:36;4.50;99.90
5130;DHT22;2583;50.946;6.954;2022-12-05T01:24:03;4.50;99.90
5130;DHT22;2583;50.946;6.954;2022-12-05T01:26:30;4.50;99.90
5130;DHT22;2583;50.946;6.954;2022-12-05T01:28:57;4.40;99.90
5130;DHT22;2583;50.946;6.954;2022-12-05T01:31:29;4.40;99.90
5130;DHT22;2583;50.946;6.954;2022-12-05T01:33:58;4.40;99.90
5130;DHT22;2583;50.946;6.954;2022-12-05T01:36:26;4.50;99.90
5130;DHT22;2583;50.946;6.954;2022-12-05T01:38:54;4.50;99.90
5130;DHT22;2583;50.946;6.954;2022-12-05T01:41:33;4.50;99.90
5130;DHT22;2583;50.946;6.954;2022-12-05T01:46:43;4.40;99.90
5130;DHT22;2583;50.946;6.954;2022-12-05T01:49:18;4.40;99.90
5130;DHT22;2583;50.946;6.954;2022-12-05T01:51:50;4.40;99.90
5130;DHT22;2583;50.946;6.954;2022-12-05T01:54:18;4.50;99.90
5130;DHT22;2583;50.946;6.954;2022-12-05T01:56:52;4.50;99.90
5130;DHT22;2583;50.946;6.954;2022-12-05T01:59:22;4.50;99.90
5130;DHT22;2583;50.946;6.954;2022-12-05T02:01:50;4.50;99.90
5130;DHT22;2583;50.946;6.954;2022-12-05T02:04:17;4.50;99.90
5130;DHT22;2583;50.946;6.954;2022-12-05T02:06:43;4.50;99.90
5130;DHT22;2583;50.946;6.954;2022-12-05T02:09:10;4.40;99.90
5130;DHT22;2583;50.946;6.954;2022-12-05T02:11:53;4.50;99.90
5130;DHT22;2583;50.946;6.954;2022-12-05T02:26:02;4.40;99.90
5130;DHT22;2583;50.946;6.954;2022-12-05T02:31:32;4.40;99.90
5130;DHT22;2583;50.946;6.954;2022-12-05T02:39:16;4.40;99.90
5130;DHT22;2583;50.946;6.954;2022-12-05T02:44:36;4.50;99.90
5130;DHT22;2583;50.946;6.954;2022-12-05T02:47:07;4.50;99.90
5130;DHT22;2583;50.946;6.954;2022-12-05T02:49:36;4.50;99.90
5130;DHT22;2583;50.946;6.954;2022-12-05T02:52:08;4.40;99.90
5130;DHT22;2583;50.946;6.954;2022-12-05T02:54:38;4.40;99.90
5130;DHT22;2583;50.946;6.954;2022-12-05T02:57:08;4.40;99.90
5130;DHT22;2583;50.946;6.954;2022-12-05T02:59:35;4.40;99.90
5130;DHT22;2583;50.946;6.954;2022-12-05T03:02:03;4.30;99.90
5130;DHT22;2583;50.946;6.954;2022-12-05T03:04:30;4.20;99.90
5130;DHT22;2583;50.946;6.954;2022-12-05T03:07:07;4.10;99.90
5130;DHT22;2583;50.946;6.954;2022-12-05T03:10:00;4.10;99.90
5130;DHT22;2583;50.946;6.954;2022-12-05T03:12:32;4.10;99.90
5130;DHT22;2583;50.946;6.954;2022-12-05T03:17:46;4.10;99.90
5130;DHT22;2583;50.946;6.954;2022-12-05T03:20:24;4.10;99.90
5130;DHT22;2583;50.946;6.954;2022-12-05T03:23:07;4.00;99.90
5130;DHT22;2583;50.946;6.954;2022-12-05T03:28:23;3.80;99.90
5130;DHT22;2583;50.946;6.954;2022-12-05T03:30:56;3.70;99.90
5130;DHT22;2583;50.946;6.954;2022-12-05T03:33:29;3.70;99.90
5130;DHT22;2583;50.946;6.954;2022-12-05T03:36:06;3.70;99.90
5130;DHT22;2583;50.946;6.954;2022-12-05T03:38:42;3.70;99.90
5130;DHT22;2583;50.946;6.954;2022-12-05T03:42:04;3.70;99.90
5130;DHT22;2583;50.946;6.954;2022-12-05T03:44:22;3.60;99.90
5130;DHT22;2583;50.946;6.954;2022-12-05T03:46:58;3.60;99.90
5130;DHT22;2583;50.946;6.954;2022-12-05T03:49:46;3.70;99.90
5130;DHT22;2583;50.946;6.954;2022-12-05T03:52:28;3.70;99.90
5130;DHT22;2583;50.946;6.954;2022-12-05T03:55:12;3.60;99.90
5130;DHT22;2583;50.946;6.954;2022-12-05T03:57:47;3.60;99.90
5130;DHT22;2583;50.946;6.954;2022-12-05T04:00:18;3.50;99.90
5130;DHT22;2583;50.946;6.954;2022-12-05T04:05:47;3.60;99.90
5130;DHT22;2583;50.946;6.954;2022-12-05T04:08:24;3.50;99.90
5130;DHT22;2583;50.946;6.954;2022-12-05T04:10:56;3.50;99.90
5130;DHT22;2583;50.946;6.954;2022-12-05T04:13:36;3.50;99.90
5130;DHT22;2583;50.946;6.954;2022-12-05T04:16:10;3.40;99.90
5130;DHT22;2583;50.946;6.954;2022-12-05T04:19:01;3.40;99.90
5130;DHT22;2583;50.946;6.954;2022-12-05T04:21:41;3.40;99.90
5130;DHT22;2583;50.946;6.954;2022-12-05T04:24:37;3.40;99.90
5130;DHT22;2583;50.946;6.954;2022-12-05T04:27:36;3.30;99.90
5130;DHT22;2583;50.946;6.954;2022-12-05T04:35:39;3.30;99.90
5130;DHT22;2583;50.946;6.954;2022-12-05T04:38:10;3.30;99.90
5130;DHT22;2583;50.946;6.954;2022-12-05T04:41:04;3.30;99.90
5130;DHT22;2583;50.946;6.954;2022-12-05T04:43:36;3.40;99.90
5130;DHT22;2583;50.946;6.954;2022-12-05T04:46:06;3.40;99.90
5130;DHT22;2583;50.946;6.954;2022-12-05T04:48:36;3.40;99.90
5130;DHT22;2583;50.946;6.954;2022-12-05T04:51:07;3.40;99.90
5130;DHT22;2583;50.946;6.954;2022-12-05T04:53:35;3.40;99.90
5130;DHT22;2583;50.946;6.954;2022-12-05T04:56:03;3.40;99.90
5130;DHT22;2583;50.946;6.954;2022-12-05T04:58:31;3.40;99.90
5130;DHT22;2583;50.946;6.954;2022-12-05T05:01:15;3.50;99.90
5130;DHT22;2583;50.946;6.954;2022-12-05T05:03:48;3.50;99.90
5130;DHT22;2583;50.946;6.954;2022-12-05T05:06:16;3.50;99.90
5130;DHT22;2583;50.946;6.954;2022-12-05T05:13:44;3.50;99.90
5130;DHT22;2583;50.946;6.954;2022-12-05T05:16:15;3.50;99.90
5130;DHT22;2583;50.946;6.954;2022-12-05T05:18:46;3.50;99.90
5130;DHT22;2583;50.946;6.954;2022-12-05T05:23:47;3.50;99.90
5130;DHT22;2583;50.946;6.954;2022-12-05T05:26:15;3.50;99.90
5130;DHT22;2583;50.946;6.954;2022-12-05T05:28:41;3.50;99.90
5130;DHT22;2583;50.946;6.954;2022-12-05T05:31:08;3.50;99.90
5130;DHT22;2583;50.946;6.954;2022-12-05T05:33:35;3.50;99.90
5130;DHT22;2583;50.946;6.954;2022-12-05T05:38:30;3.50;99.90
5130;DHT22;2583;50.946;6.954;2022-12-05T05:41:00;3.60;99.90
5130;DHT22;2583;50.946;6.954;2022-12-05T05:43:27;3.60;99.90
5130;DHT22;2583;50.946;6.954;2022-12-05T05:45:53;3.50;99.90
5130;DHT22;2583;50.946;6.954;2022-12-05T05:48:20;3.60;99.90
5130;DHT22;2583;50.946;6.954;2022-12-05T05:50:47;3.50;99.90
5130;DHT22;2583;50.946;6.954;2022-12-05T05:53:14;3.50;99.90
5130;DHT22;2583;50.946;6.954;2022-12-05T05:55:41;3.50;99.90
5130;DHT22;2583;50.946;6.954;2022-12-05T05:58:08;3.50;99.90
5130;DHT22;2583;50.946;6.954;2022-12-05T06:00:35;3.60;99.90
5130;DHT22;2583;50.946;6.954;2022-12-05T06:03:01;3.50;99.90
5130;DHT22;2583;50.946;6.954;2022-12-05T06:05:28;3.50;99.90
5130;DHT22;2583;50.946;6.954;2022-12-05T06:07:55;3.50;99.90
5130;DHT22;2583;50.946;6.954;2022-12-05T06:10:22;3.50;99.90
5130;DHT22;2583;50.946;6.954;2022-12-05T06:12:49;3.50;99.90
5130;DHT22;2583;50.946;6.954;2022-12-05T06:15:16;3.50;99.90
5130;DHT22;2583;50.946;6.954;2022-12-05T06:17:42;3.50;99.90
5130;DHT22;2583;50.946;6.954;2022-12-05T06:20:09;3.40;99.90
5130;DHT22;2583;50.946;6.954;2022-12-05T06:22:36;3.40;99.90
5130;DHT22;2583;50.946;6.954;2022-12-05T06:25:04;3.40;99.90
5130;DHT22;2583;50.946;6.954;2022-12-05T06:27:31;3.40;99.90
5130;DHT22;2583;50.946;6.954;2022-12-05T06:29:58;3.30;99.90
5130;DHT22;2583;50.946;6.954;2022-12-05T06:32:27;3.20;99.90
5130;DHT22;2583;50.946;6.954;2022-12-05T06:34:53;3.20;99.90
5130;DHT22;2583;50.946;6.954;2022-12-05T06:37:20;3.20;99.90
5130;DHT22;2583;50.946;6.954;2022-12-05T06:39:47;3.30;99.90
5130;DHT22;2583;50.946;6.954;2022-12-05T06:42:16;3.30;99.90
5130;DHT22;2583;50.946;6.954;2022-12-05T06:44:42;3.30;99.90
5130;DHT22;2583;50.946;6.954;2022-12-05T06:47:09;3.40;99.90
5130;DHT22;2583;50.946;6.954;2022-12-05T06:49:36;3.40;99.90
5130;DHT22;2583;50.946;6.954;2022-12-05T06:52:03;3.40;99.90
5130;DHT22;2583;50.946;6.954;2022-12-05T06:54:30;3.40;99.90
5130;DHT22;2583;50.946;6.954;2022-12-05T06:56:57;3.40;99.90
5130;DHT22;2583;50.946;6.954;2022-12-05T06:59:24;3.30;99.90
5130;DHT22;2583;50.946;6.954;2022-12-05T07:01:50;3.30;99.90
5130;DHT22;2583;50.946;6.954;2022-12-05T07:04:20;3.30;99.90
5130;DHT22;2583;50.946;6.954;2022-12-05T07:06:51;3.30;99.90
5130;DHT22;2583;50.946;6.954;2022-12-05T07:09:20;3.20;99.90
5130;DHT22;2583;50.946;6.954;2022-12-05T07:11:49;3.10;99.90
5130;DHT22;2583;50.946;6.954;2022-12-05T07:14:17;3.10;99.90
5130;DHT22;2583;50.946;6.954;2022-12-05T07:17:04;3.20;99.90
5130;DHT22;2583;50.946;6.954;2022-12-05T07:19:30;3.20;99.90
5130;DHT22;2583;50.946;6.954;2022-12-05T07:21:57;3.20;99.90
5130;DHT22;2583;50.946;6.954;2022-12-05T07:24:24;3.20;99.90
5130;DHT22;2583;50.946;6.954;2022-12-05T07:26:51;3.20;99.90
5130;DHT22;2583;50.946;6.954;2022-12-05T07:29:18;3.20;99.90
5130;DHT22;2583;50.946;6.954;2022-12-05T07:31:45;3.10;99.90
5130;DHT22;2583;50.946;6.954;2022-12-05T07:34:12;3.10;99.90
5130;DHT22;2583;50.946;6.954;2022-12-05T07:36:38;3.10;99.90
5130;DHT22;2583;50.946;6.954;2022-12-05T07:39:05;3.10;99.90
5130;DHT22;2583;50.946;6.954;2022-12-05T07:41:32;3.10;99.90
5130;DHT22;2583;50.946;6.954;2022-12-05T07:44:00;3.10;99.90
5130;DHT22;2583;50.946;6.954;2022-12-05T07:46:28;3.10;99.90
5130;DHT22;2583;50.946;6.954;2022-12-05T07:48:55;3.10;99.90
5130;DHT22;2583;50.946;6.954;2022-12-05T07:51:22;3.10;99.90
5130;DHT22;2583;50.946;6.954;2022-12-05T07:53:49;3.10;99.90
5130;DHT22;2583;50.946;6.954;2022-12-05T07:56:17;3.20;99.90
5130;DHT22;2583;50.946;6.954;2022-12-05T07:58:46;3.20;99.90
5130;DHT22;2583;50.946;6.954;2022-12-05T08:01:19;3.20;99.90
5130;DHT22;2583;50.946;6.954;2022-12-05T08:03:46;3.30;99.90
5130;DHT22;2583;50.946;6.954;2022-12-05T08:06:16;3.30;99.90
5130;DHT22;2583;50.946;6.954;2022-12-05T08:08:43;3.20;99.90
5130;DHT22;2583;50.946;6.954;2022-12-05T08:11:12;3.20;99.90
5130;DHT22;2583;50.946;6.954;2022-12-05T08:13:41;3.10;99.90
5130;DHT22;2583;50.946;6.954;2022-12-05T08:16:13;3.10;99.90
5130;DHT22;2583;50.946;6.954;2022-12-05T08:18:41;3.20;99.90
5130;DHT22;2583;50.946;6.954;2022-12-05T08:21:13;3.20;99.90
5130;DHT22;2583;50.946;6.954;2022-12-05T08:23:41;3.30;99.90
5130;DHT22;2583;50.946;6.954;2022-12-05T08:26:17;3.30;99.90
5130;DHT22;2583;50.946;6.954;2022-12-05T08:28:49;3.20;99.90
5130;DHT22;2583;50.946;6.954;2022-12-05T08:31:17;3.20;99.90
5130;DHT22;2583;50.946;6.954;2022-12-05T08:33:45;3.30;99.90
5130;DHT22;2583;50.946;6.954;2022-12-05T08:36:13;3.30;99.90
5130;DHT22;2583;50.946;6.954;2022-12-05T08:38:45;3.30;99.90
5130;DHT22;2583;50.946;6.954;2022-12-05T08:41:14;3.20;99.90
5130;DHT22;2583;50.946;6.954;2022-12-05T08:43:42;3.20;99.90
5130;DHT22;2583;50.946;6.954;2022-12-05T08:46:10;3.20;99.90
5130;DHT22;2583;50.946;6.954;2022-12-05T08:48:37;3.30;99.90
5130;DHT22;2583;50.946;6.954;2022-12-05T08:51:05;3.20;99.90
5130;DHT22;2583;50.946;6.954;2022-12-05T08:53:35;3.20;99.90
5130;DHT22;2583;50.946;6.954;2022-12-05T08:56:09;3.30;99.90
5130;DHT22;2583;50.946;6.954;2022-12-05T08:58:37;3.30;99.90
5130;DHT22;2583;50.946;6.954;2022-12-05T09:01:04;3.30;99.90
5130;DHT22;2583;50.946;6.954;2022-12-05T09:03:32;3.30;99.90
5130;DHT22;2583;50.946;6.954;2022-12-05T09:06:26;3.30;99.90
5130;DHT22;2583;50.946;6.954;2022-12-05T09:08:55;3.30;99.90
5130;DHT22;2583;50.946;6.954;2022-12-05T09:11:25;3.30;99.90
5130;DHT22;2583;50.946;6.954;2022-12-05T09:13:53;3.20;99.90
5130;DHT22;2583;50.946;6.954;2022-12-05T09:16:23;3.30;99.90
5130;DHT22;2583;50.946;6.954;2022-12-05T09:18:51;3.30;99.90
5130;DHT22;2583;50.946;6.954;2022-12-05T09:21:20;3.30;99.90
5130;DHT22;2583;50.946;6.954;2022-12-05T09:23:47;3.20;99.90
5130;DHT22;2583;50.946;6.954;2022-12-05T09:26:17;3.20;99.90
5130;DHT22;2583;50.946;6.954;2022-12-05T09:28:44;3.30;99.90
5130;DHT22;2583;50.946;6.954;2022-12-05T09:31:13;3.30;99.90
5130;DHT22;2583;50.946;6.954;2022-12-05T09:33:41;3.30;99.90
5130;DHT22;2583;50.946;6.954;2022-12-05T09:36:11;3.40;99.90
5130;DHT22;2583;50.946;6.954;2022-12-05T09:38:38;3.40;99.90
5130;DHT22;2583;50.946;6.954;2022-12-05T09:49:10;3.50;99.90
5130;DHT22;2583;50.946;6.954;2022-12-05T09:51:43;3.50;99.90
5130;DHT22;2583;50.946;6.954;2022-12-05T09:54:16;3.50;99.90
5130;DHT22;2583;50.946;6.954;2022-12-05T09:56:44;3.60;99.90
5130;DHT22;2583;50.946;6.954;2022-12-05T09:59:13;3.70;99.90
5130;DHT22;2583;50.946;6.954;2022-12-05T10:02:21;3.70;99.90
5130;DHT22;2583;50.946;6.954;2022-12-05T10:05:02;3.80;99.90
5130;DHT22;2583;50.946;6.954;2022-12-05T10:10:28;3.80;99.90
5130;DHT22;2583;50.946;6.954;2022-12-05T10:15:59;3.90;99.90
5130;DHT22;2583;50.946;6.954;2022-12-05T10:21:09;4.00;99.90
5130;DHT22;2583;50.946;6.954;2022-12-05T10:23:57;4.10;99.90
5130;DHT22;2583;50.946;6.954;2022-12-05T10:26:45;4.20;99.90
5130;DHT22;2583;50.946;6.954;2022-12-05T10:29:25;4.30;99.90
5130;DHT22;2583;50.946;6.954;2022-12-05T10:32:01;4.20;99.90
5130;DHT22;2583;50.946;6.954;2022-12-05T10:34:32;4.20;99.90
5130;DHT22;2583;50.946;6.954;2022-12-05T10:37:20;4.20;99.90
5130;DHT22;2583;50.946;6.954;2022-12-05T10:39:48;4.30;99.90
5130;DHT22;2583;50.946;6.954;2022-12-05T10:42:20;4.30;99.90
5130;DHT22;2583;50.946;6.954;2022-12-05T10:44:53;4.40;99.90
5130;DHT22;2583;50.946;6.954;2022-12-05T10:47:21;4.30;99.90
5130;DHT22;2583;50.946;6.954;2022-12-05T10:49:48;4.30;99.90
5130;DHT22;2583;50.946;6.954;2022-12-05T10:52:15;4.20;99.90
5130;DHT22;2583;50.946;6.954;2022-12-05T10:54:47;4.20;99.90
5130;DHT22;2583;50.946;6.954;2022-12-05T10:57:23;4.20;99.90
5130;DHT22;2583;50.946;6.954;2022-12-05T10:59:51;4.30;99.90
5130;DHT22;2583;50.946;6.954;2022-12-05T11:02:29;4.30;99.90
5130;DHT22;2583;50.946;6.954;2022-12-05T11:04:57;4.30;99.90
5130;DHT22;2583;50.946;6.954;2022-12-05T11:09:53;4.40;99.90
5130;DHT22;2583;50.946;6.954;2022-12-05T11:12:39;4.40;99.90
5130;DHT22;2583;50.946;6.954;2022-12-05T11:17:45;4.40;99.90
5130;DHT22;2583;50.946;6.954;2022-12-05T11:22:47;4.40;99.90
5130;DHT22;2583;50.946;6.954;2022-12-05T11:27:55;4.40;99.90
5130;DHT22;2583;50.946;6.954;2022-12-05T11:30:28;4.50;99.90
5130;DHT22;2583;50.946;6.954;2022-12-05T11:33:18;4.50;99.90
5130;DHT22;2583;50.946;6.954;2022-12-05T11:35:46;4.40;99.90
5130;DHT22;2583;50.946;6.954;2022-12-05T11:38:16;4.50;99.90
5130;DHT22;2583;50.946;6.954;2022-12-05T12:00:47;4.60;99.90
5130;DHT22;2583;50.946;6.954;2022-12-05T12:06:22;4.40;99.90
5130;DHT22;2583;50.946;6.954;2022-12-05T12:16:56;4.30;99.90
5130;DHT22;2583;50.946;6.954;2022-12-05T12:22:10;4.40;99.90
5130;DHT22;2583;50.946;6.954;2022-12-05T12:24:49;4.30;99.90
5130;DHT22;2583;50.946;6.954;2022-12-05T12:30:02;4.50;99.90
5130;DHT22;2583;50.946;6.954;2022-12-05T12:35:20;4.50;99.90
5130;DHT22;2583;50.946;6.954;2022-12-05T12:38:21;4.40;99.90
5130;DHT22;2583;50.946;6.954;2022-12-05T12:49:34;4.40;99.90
5130;DHT22;2583;50.946;6.954;2022-12-05T12:52:23;4.40;99.90
5130;DHT22;2583;50.946;6.954;2022-12-05T13:00:10;4.30;99.90
5130;DHT22;2583;50.946;6.954;2022-12-05T13:02:45;4.40;99.90
5130;DHT22;2583;50.946;6.954;2022-12-05T13:05:26;4.40;99.90
5130;DHT22;2583;50.946;6.954;2022-12-05T13:08:05;4.60;99.90
5130;DHT22;2583;50.946;6.954;2022-12-05T13:10:40;4.40;99.90
5130;DHT22;2583;50.946;6.954;2022-12-05T13:13:12;4.40;99.90
5130;DHT22;2583;50.946;6.954;2022-12-05T13:15:44;4.50;99.90
5130;DHT22;2583;50.946;6.954;2022-12-05T13:18:17;4.50;99.90
5130;DHT22;2583;50.946;6.954;2022-12-05T13:20:47;4.50;99.90
5130;DHT22;2583;50.946;6.954;2022-12-05T13:23:16;4.50;99.90
5130;DHT22;2583;50.946;6.954;2022-12-05T13:25:45;4.40;99.90
5130;DHT22;2583;50.946;6.954;2022-12-05T13:30:59;4.30;99.90
5130;DHT22;2583;50.946;6.954;2022-12-05T13:33:34;4.20;99.90
5130;DHT22;2583;50.946;6.954;2022-12-05T13:36:05;4.30;99.90
5130;DHT22;2583;50.946;6.954;2022-12-05T13:39:18;4.20;99.90
5130;DHT22;2583;50.946;6.954;2022-12-05T13:42:06;4.10;99.90
5130;DHT22;2583;50.946;6.954;2022-12-05T13:45:04;4.10;99.90
5130;DHT22;2583;50.946;6.954;2022-12-05T13:50:49;4.10;99.90
5130;DHT22;2583;50.946;6.954;2022-12-05T13:53:35;4.00;99.90
5130;DHT22;2583;50.946;6.954;2022-12-05T13:56:06;4.00;99.90
5130;DHT22;2583;50.946;6.954;2022-12-05T13:58:53;3.90;99.90
5130;DHT22;2583;50.946;6.954;2022-12-05T14:11:37;3.90;99.90
5130;DHT22;2583;50.946;6.954;2022-12-05T14:14:07;3.90;99.90
5130;DHT22;2583;50.946;6.954;2022-12-05T14:16:40;3.90;99.90
5130;DHT22;2583;50.946;6.954;2022-12-05T14:19:24;3.90;99.90
5130;DHT22;2583;50.946;6.954;2022-12-05T14:28:57;4.00;99.90
5130;DHT22;2583;50.946;6.954;2022-12-05T14:34:28;4.20;99.90
5130;DHT22;2583;50.946;6.954;2022-12-05T14:39:46;4.20;99.90
5130;DHT22;2583;50.946;6.954;2022-12-05T14:44:57;4.20;99.90
5130;DHT22;2583;50.946;6.954;2022-12-05T14:47:30;4.10;99.90
5130;DHT22;2583;50.946;6.954;2022-12-05T14:52:37;4.00;99.90
5130;DHT22;2583;50.946;6.954;2022-12-05T14:55:12;3.90;99.90
5130;DHT22;2583;50.946;6.954;2022-12-05T14:57:48;3.90;99.90
5130;DHT22;2583;50.946;6.954;2022-12-05T15:00:19;3.90;99.90
5130;DHT22;2583;50.946;6.954;2022-12-05T15:02:50;3.80;99.90
5130;DHT22;2583;50.946;6.954;2022-12-05T15:05:31;3.80;99.90
5130;DHT22;2583;50.946;6.954;2022-12-05T15:07:59;3.70;99.90
5130;DHT22;2583;50.946;6.954;2022-12-05T15:10:35;3.70;99.90
5130;DHT22;2583;50.946;6.954;2022-12-05T15:13:14;3.70;99.90
5130;DHT22;2583;50.946;6.954;2022-12-05T15:15:45;3.80;99.90
5130;DHT22;2583;50.946;6.954;2022-12-05T15:18:37;3.90;99.90
5130;DHT22;2583;50.946;6.954;2022-12-05T15:21:17;3.80;99.90
5130;DHT22;2583;50.946;6.954;2022-12-05T15:24:05;3.80;99.90
5130;DHT22;2583;50.946;6.954;2022-12-05T15:26:45;3.70;99.90
5130;DHT22;2583;50.946;6.954;2022-12-05T15:31:51;3.80;99.90
5130;DHT22;2583;50.946;6.954;2022-12-05T15:37:22;3.80;99.90
5130;DHT22;2583;50.946;6.954;2022-12-05T15:40:11;3.80;99.90
5130;DHT22;2583;50.946;6.954;2022-12-05T15:42:43;3.60;99.90
5130;DHT22;2583;50.946;6.954;2022-12-05T15:48:09;3.50;99.90
5130;DHT22;2583;50.946;6.954;2022-12-05T15:56:07;3.60;99.90
5130;DHT22;2583;50.946;6.954;2022-12-05T16:01:19;3.50;99.90
5130;DHT22;2583;50.946;6.954;2022-12-05T16:06:24;3.60;99.90
5130;DHT22;2583;50.946;6.954;2022-12-05T16:08:53;3.70;99.90
5130;DHT22;2583;50.946;6.954;2022-12-05T16:11:21;3.70;99.90
5130;DHT22;2583;50.946;6.954;2022-12-05T16:13:56;3.60;99.90
5130;DHT22;2583;50.946;6.954;2022-12-05T16:16:32;3.50;99.90
5130;DHT22;2583;50.946;6.954;2022-12-05T16:19:11;3.50;99.90
5130;DHT22;2583;50.946;6.954;2022-12-05T16:21:44;3.40;99.90
5130;DHT22;2583;50.946;6.954;2022-12-05T16:24:25;3.40;99.90
5130;DHT22;2583;50.946;6.954;2022-12-05T16:27:02;3.30;99.90
5130;DHT22;2583;50.946;6.954;2022-12-05T16:29:33;3.30;99.90
5130;DHT22;2583;50.946;6.954;2022-12-05T16:32:04;3.30;99.90
5130;DHT22;2583;50.946;6.954;2022-12-05T16:34:33;3.20;99.90
5130;DHT22;2583;50.946;6.954;2022-12-05T16:37:00;3.20;99.90
5130;DHT22;2583;50.946;6.954;2022-12-05T16:39:27;3.20;99.90
5130;DHT22;2583;50.946;6.954;2022-12-05T16:41:54;3.10;99.90
5130;DHT22;2583;50.946;6.954;2022-12-05T16:46:54;3.10;99.90
5130;DHT22;2583;50.946;6.954;2022-12-05T16:49:32;3.10;99.90
5130;DHT22;2583;50.946;6.954;2022-12-05T16:54:34;3.30;99.90
5130;DHT22;2583;50.946;6.954;2022-12-05T16:57:02;3.30;99.90
5130;DHT22;2583;50.946;6.954;2022-12-05T16:59:34;3.40;99.90
5130;DHT22;2583;50.946;6.954;2022-12-05T17:02:04;3.40;99.90
5130;DHT22;2583;50.946;6.954;2022-12-05T17:04:32;3.40;99.90
5130;DHT22;2583;50.946;6.954;2022-12-05T17:06:59;3.30;99.90
5130;DHT22;2583;50.946;6.954;2022-12-05T17:09:26;3.30;99.90
5130;DHT22;2583;50.946;6.954;2022-12-05T17:12:08;3.30;99.90
5130;DHT22;2583;50.946;6.954;2022-12-05T17:14:37;3.30;99.90
5130;DHT22;2583;50.946;6.954;2022-12-05T17:17:10;3.20;99.90
5130;DHT22;2583;50.946;6.954;2022-12-05T17:19:38;3.20;99.90
5130;DHT22;2583;50.946;6.954;2022-12-05T17:22:04;3.20;99.90
5130;DHT22;2583;50.946;6.954;2022-12-05T17:24:32;3.10;99.90
5130;DHT22;2583;50.946;6.954;2022-12-05T17:26:58;3.10;99.90
5130;DHT22;2583;50.946;6.954;2022-12-05T17:29:25;3.10;99.90
5130;DHT22;2583;50.946;6.954;2022-12-05T17:31:59;3.10;99.90
5130;DHT22;2583;50.946;6.954;2022-12-05T17:34:27;3.10;99.90
5130;DHT22;2583;50.946;6.954;2022-12-05T17:36:54;3.00;99.90
5130;DHT22;2583;50.946;6.954;2022-12-05T17:39:22;3.00;99.90
5130;DHT22;2583;50.946;6.954;2022-12-05T17:41:54;3.00;99.90
5130;DHT22;2583;50.946;6.954;2022-12-05T17:44:21;3.00;99.90
5130;DHT22;2583;50.946;6.954;2022-12-05T17:46:47;3.00;99.90
5130;DHT22;2583;50.946;6.954;2022-12-05T17:49:15;3.00;99.90
5130;DHT22;2583;50.946;6.954;2022-12-05T17:51:44;3.00;99.90
5130;DHT22;2583;50.946;6.954;2022-12-05T17:54:31;2.90;99.90
5130;DHT22;2583;50.946;6.954;2022-12-05T17:56:58;2.80;99.90
5130;DHT22;2583;50.946;6.954;2022-12-05T17:59:25;2.90;99.90
5130;DHT22;2583;50.946;6.954;2022-12-05T18:01:52;2.90;99.90
5130;DHT22;2583;50.946;6.954;2022-12-05T18:04:18;2.90;99.90
5130;DHT22;2583;50.946;6.954;2022-12-05T18:06:49;3.00;99.90
5130;DHT22;2583;50.946;6.954;2022-12-05T18:09:16;3.10;99.90
5130;DHT22;2583;50.946;6.954;2022-12-05T18:11:43;3.10;99.90
5130;DHT22;2583;50.946;6.954;2022-12-05T18:14:10;3.20;99.90
5130;DHT22;2583;50.946;6.954;2022-12-05T18:16:37;3.20;99.90
5130;DHT22;2583;50.946;6.954;2022-12-05T18:19:04;3.10;99.90
5130;DHT22;2583;50.946;6.954;2022-12-05T18:21:31;3.10;99.90
5130;DHT22;2583;50.946;6.954;2022-12-05T18:23:58;3.00;99.90
5130;DHT22;2583;50.946;6.954;2022-12-05T18:26:25;3.10;99.90
5130;DHT22;2583;50.946;6.954;2022-12-05T18:28:52;3.10;99.90
5130;DHT22;2583;50.946;6.954;2022-12-05T18:31:22;2.90;99.90
5130;DHT22;2583;50.946;6.954;2022-12-05T18:33:49;2.90;99.90
5130;DHT22;2583;50.946;6.954;2022-12-05T18:36:18;2.90;99.90
5130;DHT22;2583;50.946;6.954;2022-12-05T18:38:53;2.90;99.90
5130;DHT22;2583;50.946;6.954;2022-12-05T18:41:21;3.00;99.90
5130;DHT22;2583;50.946;6.954;2022-12-05T18:43:49;2.90;99.90
5130;DHT22;2583;50.946;6.954;2022-12-05T18:46:17;2.90;99.90
5130;DHT22;2583;50.946;6.954;2022-12-05T18:48:44;3.00;99.90
5130;DHT22;2583;50.946;6.954;2022-12-05T18:51:21;2.80;99.90
5130;DHT22;2583;50.946;6.954;2022-12-05T18:53:50;2.90;99.90
5130;DHT22;2583;50.946;6.954;2022-12-05T18:56:20;2.90;99.90
5130;DHT22;2583;50.946;6.954;2022-12-05T18:59:01;2.90;99.90
5130;DHT22;2583;50.946;6.954;2022-12-05T19:01:31;2.90;99.90
5130;DHT22;2583;50.946;6.954;2022-12-05T19:03:59;2.90;99.90
5130;DHT22;2583;50.946;6.954;2022-12-05T19:06:28;3.00;99.90
5130;DHT22;2583;50.946;6.954;2022-12-05T19:08:57;3.10;99.90
5130;DHT22;2583;50.946;6.954;2022-12-05T19:11:25;3.10;99.90
5130;DHT22;2583;50.946;6.954;2022-12-05T19:14:02;3.10;99.90
5130;DHT22;2583;50.946;6.954;2022-12-05T19:16:30;3.10;99.90
5130;DHT22;2583;50.946;6.954;2022-12-05T19:18:59;3.20;99.90
5130;DHT22;2583;50.946;6.954;2022-12-05T19:21:29;3.30;99.90
5130;DHT22;2583;50.946;6.954;2022-12-05T19:23:57;3.30;99.90
5130;DHT22;2583;50.946;6.954;2022-12-05T19:26:24;3.30;99.90
5130;DHT22;2583;50.946;6.954;2022-12-05T19:28:51;3.40;99.90
5130;DHT22;2583;50.946;6.954;2022-12-05T19:31:20;3.50;99.90
5130;DHT22;2583;50.946;6.954;2022-12-05T19:33:50;3.40;99.90
5130;DHT22;2583;50.946;6.954;2022-12-05T19:36:29;3.40;99.90
5130;DHT22;2583;50.946;6.954;2022-12-05T19:38:57;3.40;99.90
5130;DHT22;2583;50.946;6.954;2022-12-05T19:41:28;3.30;99.90
5130;DHT22;2583;50.946;6.954;2022-12-05T19:44:00;3.30;99.90
5130;DHT22;2583;50.946;6.954;2022-12-05T19:46:29;3.30;99.90
5130;DHT22;2583;50.946;6.954;2022-12-05T19:48:58;3.30;99.90
5130;DHT22;2583;50.946;6.954;2022-12-05T19:51:25;3.30;99.90
5130;DHT22;2583;50.946;6.954;2022-12-05T19:53:53;3.40;99.90
5130;DHT22;2583;50.946;6.954;2022-12-05T19:56:25;3.50;99.90